Time;durP1;ratioP1;P1;durP2;ratioP2;P2;SDS_P1;SDS_P2;PMS_P1;PMS_P2;Temp;Humidity;BMP_temperature;BMP_pressure;BME280_temperature;BME280_humidity;BME280_pressure;Samples;Min_cycle;Max_cycle;Signal;HPM_P1;HPM_P2
2021/05/24 00:01:01;;;;;;;2.67;2.00;;;9.20;99.90;;;;;;5113060;28;20035;-73
2021/05/24 00:03:27;;;;;;;5.47;2.42;;;9.10;99.90;;;;;;5113270;28;20055;-73
2021/05/24 00:05:53;;;;;;;6.18;3.08;;;9.00;99.90;;;;;;5114454;28;20054;-73
2021/05/24 00:08:19;;;;;;;7.45;2.50;;;9.00;99.90;;;;;;5117673;28;20051;-73
2021/05/24 00:10:46;;;;;;;4.10;2.03;;;9.00;99.90;;;;;;5117457;28;20447;-73
2021/05/24 00:13:15;;;;;;;3.00;1.70;;;8.90;99.90;;;;;;5117282;28;20441;-73
2021/05/24 00:15:44;;;;;;;5.40;2.37;;;9.10;99.90;;;;;;5117032;28;20058;-73
2021/05/24 00:18:10;;;;;;;3.92;2.10;;;9.00;99.90;;;;;;5117463;28;20073;-73
2021/05/24 00:20:39;;;;;;;3.28;1.88;;;9.10;99.90;;;;;;5117288;28;20114;-73
2021/05/24 00:23:05;;;;;;;5.47;2.40;;;9.00;99.90;;;;;;5117175;28;20030;-73
2021/05/24 00:25:31;;;;;;;1.77;1.42;;;9.00;99.90;;;;;;5116855;27;20387;-73
2021/05/24 00:28:00;;;;;;;2.10;1.60;;;9.00;99.90;;;;;;5117151;28;20004;-73
2021/05/24 00:30:32;;;;;;;4.45;1.40;;;9.00;99.90;;;;;;5116851;28;20020;-73
2021/05/24 00:33:02;;;;;;;2.53;1.45;;;8.90;99.90;;;;;;5116788;28;20047;-73
2021/05/24 00:35:28;;;;;;;5.93;1.63;;;8.90;99.90;;;;;;5117065;28;20020;-73
2021/05/24 00:37:54;;;;;;;5.57;1.60;;;8.80;99.90;;;;;;5116922;28;20058;-73
2021/05/24 00:40:20;;;;;;;4.53;1.70;;;8.80;99.90;;;;;;5116860;28;20063;-73
2021/05/24 00:42:46;;;;;;;5.05;2.30;;;8.60;99.90;;;;;;5116804;28;20540;-73
2021/05/24 00:45:12;;;;;;;5.15;4.07;;;8.60;99.90;;;;;;5116614;28;20024;-73
2021/05/24 00:47:38;;;;;;;7.50;3.38;;;8.70;99.90;;;;;;5116782;28;20030;-73
2021/05/24 00:50:06;;;;;;;7.93;2.70;;;8.70;99.90;;;;;;5116655;28;20571;-73
2021/05/24 00:52:31;;;;;;;4.65;2.28;;;8.70;99.90;;;;;;5116812;27;20016;-73
2021/05/24 00:54:57;;;;;;;2.63;2.42;;;8.60;99.90;;;;;;5116577;27;20372;-73
2021/05/24 00:57:23;;;;;;;4.97;1.80;;;8.60;99.90;;;;;;5116656;27;20548;-73
2021/05/24 00:59:49;;;;;;;6.57;3.17;;;8.50;99.90;;;;;;5115993;28;20032;-73
2021/05/24 01:02:15;;;;;;;3.10;1.90;;;8.50;99.90;;;;;;5116449;28;20379;-73
2021/05/24 01:04:41;;;;;;;6.78;2.22;;;8.40;99.90;;;;;;5116163;28;20375;-73
2021/05/24 01:07:07;;;;;;;3.88;2.42;;;8.40;99.90;;;;;;5116512;28;20084;-73
2021/05/24 01:09:34;;;;;;;5.30;2.50;;;8.30;99.90;;;;;;5116510;28;20028;-73
2021/05/24 01:12:00;;;;;;;5.57;2.58;;;8.30;99.90;;;;;;5114880;28;20035;-73
2021/05/24 01:14:26;;;;;;;6.13;3.40;;;8.20;99.90;;;;;;5115783;28;20159;-73
2021/05/24 01:16:54;;;;;;;7.50;2.72;;;8.10;99.90;;;;;;5115754;28;20490;-73
2021/05/24 01:19:22;;;;;;;5.43;3.03;;;8.10;99.90;;;;;;5115700;28;20027;-73
2021/05/24 01:21:48;;;;;;;6.10;2.80;;;8.10;99.90;;;;;;5116132;28;20081;-73
2021/05/24 01:24:14;;;;;;;4.47;3.40;;;8.10;99.90;;;;;;5115857;28;20023;-73
2021/05/24 01:26:42;;;;;;;7.30;3.10;;;8.00;99.90;;;;;;5115698;28;20031;-73
2021/05/24 01:29:08;;;;;;;4.95;2.33;;;8.00;99.90;;;;;;5114534;28;20028;-73
2021/05/24 01:31:34;;;;;;;3.90;2.80;;;7.90;99.90;;;;;;5115612;27;20475;-73
2021/05/24 01:34:01;;;;;;;4.22;3.35;;;7.90;99.90;;;;;;5115589;28;20031;-73
2021/05/24 01:36:27;;;;;;;7.93;3.55;;;7.80;99.90;;;;;;5115783;28;20023;-73
2021/05/24 01:38:54;;;;;;;6.97;3.30;;;7.70;99.90;;;;;;5115496;28;20565;-73
2021/05/24 01:41:20;;;;;;;8.32;2.92;;;7.80;99.90;;;;;;5115363;28;20458;-73
2021/05/24 01:43:47;;;;;;;4.20;1.88;;;7.80;99.90;;;;;;5115506;28;20035;-73
2021/05/24 01:46:13;;;;;;;7.13;2.55;;;7.70;99.90;;;;;;5115490;28;20012;-73
2021/05/24 01:48:40;;;;;;;3.85;1.90;;;7.80;99.90;;;;;;5115492;28;20031;-73
2021/05/24 01:51:07;;;;;;;3.45;1.92;;;7.80;99.90;;;;;;5115467;28;20485;-73
2021/05/24 01:53:33;;;;;;;5.38;2.28;;;7.70;99.90;;;;;;5115619;28;20023;-73
2021/05/24 01:55:59;;;;;;;2.65;2.33;;;7.70;99.90;;;;;;5114995;28;20025;-73
2021/05/24 01:58:27;;;;;;;4.50;2.30;;;7.60;99.90;;;;;;5115317;28;20527;-73
2021/05/24 02:00:53;;;;;;;5.22;1.67;;;7.60;99.90;;;;;;5115117;28;20019;-73
2021/05/24 02:03:18;;;;;;;3.53;1.63;;;7.50;99.90;;;;;;5115149;28;20072;-73
2021/05/24 02:05:44;;;;;;;4.70;1.42;;;7.50;99.90;;;;;;5115083;28;20053;-73
2021/05/24 02:08:10;;;;;;;5.13;1.42;;;7.50;99.90;;;;;;5115277;28;20023;-73
2021/05/24 02:10:38;;;;;;;2.00;1.80;;;7.50;99.90;;;;;;5115141;28;20050;-73
2021/05/24 02:13:06;;;;;;;3.33;1.27;;;7.40;99.90;;;;;;5114658;28;20055;-73
2021/05/24 02:15:38;;;;;;;1.88;1.75;;;7.30;99.90;;;;;;5114985;28;20024;-73
2021/05/24 02:18:05;;;;;;;1.77;1.65;;;7.40;99.90;;;;;;5114838;28;20030;-73
2021/05/24 02:20:33;;;;;;;3.05;1.70;;;7.20;99.90;;;;;;5115133;28;20037;-73
2021/05/24 02:23:00;;;;;;;9.00;2.05;;;7.20;99.90;;;;;;5114641;28;20019;-73
2021/05/24 02:25:27;;;;;;;6.85;2.15;;;7.10;99.90;;;;;;5114631;28;20430;-73
2021/05/24 02:27:53;;;;;;;6.65;1.30;;;7.00;99.90;;;;;;5114535;28;20027;-73
2021/05/24 02:30:20;;;;;;;6.03;1.67;;;7.00;99.90;;;;;;5114639;28;20035;-73
2021/05/24 02:32:47;;;;;;;1.15;0.80;;;6.90;99.90;;;;;;5114353;28;20080;-73
2021/05/24 02:35:15;;;;;;;1.67;0.88;;;6.50;99.90;;;;;;5114711;28;20096;-73
2021/05/24 02:37:41;;;;;;;5.93;1.27;;;6.50;99.90;;;;;;5114625;28;20055;-73
2021/05/24 02:40:10;;;;;;;3.80;1.35;;;6.70;99.90;;;;;;5112769;28;20038;-73
2021/05/24 02:42:36;;;;;;;2.85;1.25;;;6.80;99.90;;;;;;5114484;28;20019;-73
2021/05/24 02:45:09;;;;;;;1.25;1.10;;;6.80;99.90;;;;;;5114343;28;20032;-73
2021/05/24 02:47:35;;;;;;;5.65;1.10;;;6.60;99.90;;;;;;5114542;28;20031;-73
2021/05/24 02:50:04;;;;;;;2.03;1.40;;;6.50;99.90;;;;;;5114217;28;20448;-73
2021/05/24 02:52:30;;;;;;;4.43;1.17;;;6.50;99.90;;;;;;5114421;28;20031;-73
2021/05/24 02:54:56;;;;;;;4.22;1.35;;;6.60;99.90;;;;;;5113835;27;20031;-73
2021/05/24 02:57:21;;;;;;;5.93;1.95;;;6.60;99.90;;;;;;5114064;28;20023;-73
2021/05/24 02:59:47;;;;;;;3.03;1.25;;;6.70;99.90;;;;;;5114318;28;20036;-73
2021/05/24 03:02:15;;;;;;;2.92;2.55;;;6.70;99.90;;;;;;5114014;28;20135;-73
2021/05/24 03:04:41;;;;;;;5.25;1.58;;;6.80;99.90;;;;;;5114230;28;20062;-73
2021/05/24 03:07:06;;;;;;;1.73;1.58;;;6.90;99.90;;;;;;5113964;28;20427;-73
2021/05/24 03:09:33;;;;;;;2.35;1.38;;;6.80;99.90;;;;;;5113721;28;20113;-73
2021/05/24 03:11:59;;;;;;;3.40;1.67;;;6.60;99.90;;;;;;5113964;28;20055;-73
2021/05/24 03:14:25;;;;;;;5.88;1.23;;;6.60;99.90;;;;;;5113838;28;20055;-73
2021/05/24 03:16:51;;;;;;;1.83;0.93;;;6.70;99.90;;;;;;5114016;28;20015;-73
2021/05/24 03:19:17;;;;;;;1.13;1.00;;;6.80;99.90;;;;;;5113603;28;20391;-73
2021/05/24 03:21:45;;;;;;;4.18;1.00;;;6.90;99.90;;;;;;5114020;28;20076;-73
2021/05/24 03:24:11;;;;;;;1.10;0.90;;;6.90;99.90;;;;;;5113484;28;20028;-73
2021/05/24 03:26:38;;;;;;;1.10;0.85;;;6.60;99.90;;;;;;5114024;28;20027;-73
2021/05/24 03:29:04;;;;;;;4.78;1.10;;;6.30;99.90;;;;;;5113760;28;20034;-73
2021/05/24 03:31:30;;;;;;;4.03;1.20;;;6.40;99.90;;;;;;5113516;27;20471;-73
2021/05/24 03:33:56;;;;;;;2.67;0.80;;;6.60;99.90;;;;;;5113454;28;20042;-73
2021/05/24 03:36:22;;;;;;;3.40;1.45;;;6.40;99.90;;;;;;5113579;28;20023;-73
2021/05/24 03:38:48;;;;;;;3.05;1.10;;;6.20;99.90;;;;;;5113292;28;20051;-73
2021/05/24 03:41:14;;;;;;;1.92;0.70;;;6.20;99.90;;;;;;5112958;28;20487;-73
2021/05/24 03:43:44;;;;;;;4.47;1.17;;;5.90;99.90;;;;;;5113557;28;20036;-73
2021/05/24 03:46:10;;;;;;;4.07;0.93;;;6.30;99.90;;;;;;5113395;27;20016;-73
2021/05/24 03:48:39;;;;;;;2.22;0.90;;;6.00;99.90;;;;;;5113686;28;20196;-73
2021/05/24 03:51:07;;;;;;;1.65;1.23;;;6.00;99.90;;;;;;5113177;28;20468;-73
2021/05/24 03:53:33;;;;;;;2.67;0.93;;;6.10;99.90;;;;;;5113113;28;20027;-73
2021/05/24 03:55:58;;;;;;;1.88;1.25;;;5.90;99.90;;;;;;5113413;28;20437;-73
2021/05/24 03:58:24;;;;;;;3.78;1.20;;;6.00;99.90;;;;;;5113451;28;20076;-73
2021/05/24 04:00:50;;;;;;;3.53;1.05;;;6.20;99.90;;;;;;5113074;28;20126;-73
2021/05/24 04:03:16;;;;;;;2.53;1.08;;;6.20;99.90;;;;;;5113317;28;20028;-73
2021/05/24 04:05:44;;;;;;;1.10;0.80;;;6.20;99.90;;;;;;5113513;28;20020;-73
2021/05/24 04:08:10;;;;;;;4.05;1.08;;;6.20;99.90;;;;;;5112835;28;20077;-73
2021/05/24 04:10:58;;;;;;;2.05;1.20;;;6.20;99.90;;;;;;5113246;28;20028;-73
2021/05/24 04:13:22;;;;;;;4.95;0.70;;;6.20;99.90;;;;;;5112346;28;20043;-73
2021/05/24 04:15:50;;;;;;;3.60;1.55;;;6.20;99.90;;;;;;5113335;28;20544;-73
2021/05/24 04:18:18;;;;;;;0.68;0.57;;;6.10;99.90;;;;;;5113309;28;20110;-73
2021/05/24 04:20:46;;;;;;;2.95;1.00;;;6.00;99.90;;;;;;5112908;28;20023;-73
2021/05/24 04:23:13;;;;;;;4.55;1.60;;;5.90;99.90;;;;;;5112851;28;20057;-73
2021/05/24 04:25:39;;;;;;;1.17;0.93;;;5.90;99.90;;;;;;5113224;28;20517;-73
2021/05/24 04:28:05;;;;;;;0.68;0.60;;;6.00;99.90;;;;;;5113135;28;20027;-72
2021/05/24 04:30:31;;;;;;;1.65;0.98;;;5.90;99.90;;;;;;5113003;28;20034;-73
2021/05/24 04:32:57;;;;;;;2.33;1.33;;;5.90;99.90;;;;;;5112820;28;20399;-73
2021/05/24 04:35:22;;;;;;;1.17;1.02;;;5.80;99.90;;;;;;5112646;28;20031;-73
2021/05/24 04:37:48;;;;;;;1.38;1.08;;;5.90;99.90;;;;;;5113276;28;20082;-73
2021/05/24 04:40:14;;;;;;;3.05;1.10;;;5.90;99.90;;;;;;5113200;28;20392;-73
2021/05/24 04:42:40;;;;;;;1.58;1.48;;;6.00;99.90;;;;;;5112789;28;20049;-73
2021/05/24 04:45:06;;;;;;;2.00;1.02;;;6.10;99.90;;;;;;5112692;28;20107;-73
2021/05/24 04:47:32;;;;;;;12.82;2.10;;;6.20;99.90;;;;;;5113100;28;20015;-73
2021/05/24 04:49:58;;;;;;;30.80;2.60;;;6.20;99.90;;;;;;5112580;28;20512;-73
2021/05/24 04:52:24;;;;;;;37.15;2.25;;;6.10;99.90;;;;;;5113123;28;20099;-73
2021/05/24 04:54:50;;;;;;;178.55;6.55;;;5.90;99.90;;;;;;5116641;28;20032;-73
2021/05/24 04:57:16;;;;;;;110.07;4.32;;;5.90;99.90;;;;;;5116397;28;20027;-73
2021/05/24 04:59:42;;;;;;;30.92;2.55;;;5.90;99.90;;;;;;5116646;27;20399;-73
2021/05/24 05:02:08;;;;;;;15.98;2.60;;;5.90;99.90;;;;;;5116166;28;20031;-73
2021/05/24 05:04:34;;;;;;;22.58;2.15;;;5.90;99.90;;;;;;5116052;28;20035;-73
2021/05/24 05:06:59;;;;;;;30.58;2.83;;;5.80;99.90;;;;;;5116354;28;20024;-73
2021/05/24 05:09:25;;;;;;;13.02;1.73;;;5.70;99.90;;;;;;5116237;28;20032;-73
2021/05/24 05:11:55;;;;;;;14.00;1.63;;;5.70;99.90;;;;;;5115756;28;20028;-72
2021/05/24 05:14:22;;;;;;;10.40;1.33;;;5.90;99.90;;;;;;5115233;28;20104;-73
2021/05/24 05:16:48;;;;;;;4.28;1.88;;;5.90;99.90;;;;;;5115990;28;20387;-73
2021/05/24 05:19:16;;;;;;;7.13;1.20;;;6.00;99.90;;;;;;5116002;28;20073;-73
2021/05/24 05:21:42;;;;;;;5.07;1.52;;;6.00;99.90;;;;;;5115951;28;20081;-73
2021/05/24 05:24:08;;;;;;;6.78;1.50;;;6.00;99.90;;;;;;5115830;28;20483;-73
2021/05/24 05:26:34;;;;;;;9.13;1.55;;;6.10;99.90;;;;;;5115993;28;20023;-73
2021/05/24 05:29:00;;;;;;;7.68;1.13;;;6.10;99.90;;;;;;5116115;28;20023;-73
2021/05/24 05:31:26;;;;;;;4.93;1.33;;;6.00;99.90;;;;;;5115774;28;20020;-73
2021/05/24 05:33:52;;;;;;;1.52;1.15;;;6.10;99.90;;;;;;5115189;28;20044;-73
2021/05/24 05:36:18;;;;;;;3.90;1.83;;;6.10;99.90;;;;;;5115691;28;20055;-73
2021/05/24 05:38:44;;;;;;;2.53;1.08;;;6.10;99.90;;;;;;5115592;28;20051;-73
2021/05/24 05:41:10;;;;;;;1.95;1.27;;;6.20;99.90;;;;;;5115990;28;20076;-73
2021/05/24 05:43:36;;;;;;;3.38;1.05;;;6.30;99.90;;;;;;5115622;28;20036;-72
2021/05/24 05:46:02;;;;;;;0.93;0.85;;;6.40;99.90;;;;;;5115545;28;20031;-73
2021/05/24 05:48:28;;;;;;;3.90;1.48;;;6.50;99.90;;;;;;5115243;28;20024;-73
2021/05/24 05:50:54;;;;;;;1.45;1.05;;;6.70;99.90;;;;;;5115505;28;20019;-73
2021/05/24 05:53:20;;;;;;;1.42;1.10;;;6.70;99.90;;;;;;5115449;28;20036;-73
2021/05/24 05:55:46;;;;;;;2.00;1.17;;;6.70;99.90;;;;;;5114985;28;20028;-72
2021/05/24 05:58:12;;;;;;;1.73;1.02;;;6.90;99.90;;;;;;5115033;28;20039;-73
2021/05/24 06:00:38;;;;;;;2.10;1.52;;;7.10;99.90;;;;;;5115333;28;20016;-74
2021/05/24 06:03:04;;;;;;;2.65;1.08;;;7.20;99.90;;;;;;5114281;28;20107;-73
2021/05/24 06:05:31;;;;;;;3.58;1.45;;;7.30;99.90;;;;;;5114574;28;20035;-73
2021/05/24 06:07:56;;;;;;;2.17;1.20;;;7.40;99.90;;;;;;5114678;28;20022;-73
2021/05/24 06:10:22;;;;;;;2.20;0.85;;;7.50;99.90;;;;;;5114769;28;20395;-73
2021/05/24 06:12:49;;;;;;;1.40;1.30;;;7.60;99.90;;;;;;5114431;28;20027;-73
2021/05/24 06:15:17;;;;;;;1.70;1.02;;;7.70;99.90;;;;;;5114780;28;20038;-73
2021/05/24 06:17:44;;;;;;;5.57;1.30;;;7.80;99.90;;;;;;5114011;28;20063;-74
2021/05/24 06:20:10;;;;;;;2.60;1.10;;;7.90;99.90;;;;;;5114685;28;20391;-73
2021/05/24 06:22:36;;;;;;;1.23;1.13;;;8.00;99.90;;;;;;5114455;28;20024;-73
2021/05/24 06:25:02;;;;;;;6.00;1.77;;;8.30;99.90;;;;;;5110745;28;20072;-74
2021/05/24 06:27:28;;;;;;;5.93;1.42;;;8.60;99.90;;;;;;5114014;28;20023;-73
2021/05/24 06:29:54;;;;;;;2.03;1.42;;;8.70;99.90;;;;;;5114404;28;20024;-73
2021/05/24 06:32:19;;;;;;;7.45;1.67;;;8.80;99.90;;;;;;5107348;28;20514;-73
2021/05/24 06:34:45;;;;;;;4.43;2.05;;;8.90;99.90;;;;;;5114351;28;20073;-73
2021/05/24 06:37:11;;;;;;;1.85;0.75;;;9.10;99.90;;;;;;5114715;28;20475;-73
2021/05/24 06:39:36;;;;;;;1.52;0.88;;;9.20;99.90;;;;;;5110164;28;20028;-74
2021/05/24 06:42:02;;;;;;;2.53;1.10;;;9.30;99.90;;;;;;5093909;28;20031;-73
2021/05/24 06:44:28;;;;;;;1.80;0.90;;;9.40;99.90;;;;;;5094145;28;20032;-74
2021/05/24 06:46:54;;;;;;;2.55;0.85;;;9.50;99.90;;;;;;5093612;28;20391;-73
2021/05/24 06:49:19;;;;;;;1.20;0.88;;;9.70;99.90;;;;;;5106013;28;20019;-73
2021/05/24 06:51:47;;;;;;;2.90;0.80;;;9.80;99.90;;;;;;5114412;28;20035;-74
2021/05/24 06:54:12;;;;;;;2.22;0.73;;;9.90;99.90;;;;;;5114232;28;20107;-72
2021/05/24 06:56:38;;;;;;;1.08;1.00;;;9.90;99.90;;;;;;5114446;28;20067;-73
2021/05/24 06:59:04;;;;;;;3.03;1.17;;;10.10;99.90;;;;;;5113919;28;20057;-73
2021/05/24 07:01:30;;;;;;;1.17;1.08;;;10.20;99.90;;;;;;5113468;28;20031;-73
2021/05/24 07:03:55;;;;;;;3.33;1.17;;;10.30;99.90;;;;;;5113075;28;20022;-73
2021/05/24 07:06:21;;;;;;;1.63;1.17;;;10.50;99.90;;;;;;5113320;28;20564;-73
2021/05/24 07:08:47;;;;;;;4.90;1.33;;;10.40;99.90;;;;;;5113102;28;20020;-73
2021/05/24 07:11:13;;;;;;;2.80;1.27;;;10.40;99.90;;;;;;5113227;28;20032;-73
2021/05/24 07:13:38;;;;;;;2.58;1.10;;;10.50;99.90;;;;;;5113171;28;20035;-73
2021/05/24 07:16:05;;;;;;;1.45;1.17;;;10.50;99.90;;;;;;5112541;28;20376;-73
2021/05/24 07:18:30;;;;;;;1.40;0.98;;;10.60;99.90;;;;;;5112219;28;20488;-73
2021/05/24 07:20:57;;;;;;;2.65;1.00;;;10.80;99.90;;;;;;5113132;28;20111;-73
2021/05/24 07:23:23;;;;;;;1.90;0.88;;;10.90;99.90;;;;;;5113338;28;20088;-73
2021/05/24 07:25:49;;;;;;;1.38;0.82;;;11.10;99.90;;;;;;5113297;28;20491;-73
2021/05/24 07:28:14;;;;;;;1.63;0.65;;;11.20;99.90;;;;;;5113113;28;20016;-73
2021/05/24 07:30:40;;;;;;;2.28;1.33;;;11.40;99.90;;;;;;5112965;28;20024;-73
2021/05/24 07:33:06;;;;;;;1.70;1.00;;;11.50;99.90;;;;;;5112953;28;20111;-73
2021/05/24 07:35:33;;;;;;;8.63;0.98;;;11.60;99.90;;;;;;5113059;28;20058;-73
2021/05/24 07:37:59;;;;;;;2.35;1.00;;;11.90;99.90;;;;;;5113040;28;20099;-73
2021/05/24 07:40:24;;;;;;;6.18;0.70;;;12.00;99.90;;;;;;5113175;28;20127;-73
2021/05/24 07:42:50;;;;;;;0.63;0.50;;;12.00;97.70;;;;;;5113035;28;20072;-73
2021/05/24 07:45:16;;;;;;;1.23;0.80;;;12.20;97.50;;;;;;5112747;28;20104;-73
2021/05/24 07:47:42;;;;;;;2.35;0.70;;;12.30;97.50;;;;;;5112987;28;20028;-73
2021/05/24 07:50:09;;;;;;;1.08;0.60;;;12.50;96.80;;;;;;5113277;28;20468;-73
2021/05/24 07:52:34;;;;;;;1.17;0.57;;;12.70;98.00;;;;;;5111784;28;20395;-73
2021/05/24 07:55:02;;;;;;;0.70;0.70;;;13.10;97.10;;;;;;5112838;28;20043;-73
2021/05/24 07:57:28;;;;;;;1.23;0.60;;;13.30;97.30;;;;;;5113075;28;20502;-73
2021/05/24 07:59:53;;;;;;;1.48;1.10;;;13.60;96.60;;;;;;5112563;28;20484;-73
2021/05/24 08:02:22;;;;;;;3.00;0.63;;;13.70;95.30;;;;;;5112714;28;20028;-73
2021/05/24 08:04:47;;;;;;;3.55;0.98;;;13.80;93.50;;;;;;5112860;28;20114;-73
2021/05/24 08:07:13;;;;;;;5.80;1.10;;;14.00;92.40;;;;;;5112869;28;20153;-74
2021/05/24 08:09:39;;;;;;;2.83;1.42;;;14.40;83.30;;;;;;5111651;28;20055;-73
2021/05/24 08:12:05;;;;;;;1.75;0.70;;;14.70;84.10;;;;;;5112842;28;20020;-73
2021/05/24 08:14:31;;;;;;;1.33;0.90;;;14.70;80.10;;;;;;5112294;28;20509;-74
2021/05/24 08:16:58;;;;;;;4.00;0.70;;;14.90;79.80;;;;;;5112807;28;20035;-74
2021/05/24 08:19:24;;;;;;;1.70;0.70;;;15.00;79.70;;;;;;5112640;28;20041;-73
2021/05/24 08:21:51;;;;;;;2.60;0.88;;;15.20;81.90;;;;;;5112787;28;20406;-74
2021/05/24 08:24:18;;;;;;;0.90;0.75;;;15.30;78.10;;;;;;5112731;28;20051;-74
2021/05/24 08:26:46;;;;;;;1.45;0.60;;;15.40;78.60;;;;;;5113348;28;20024;-74
2021/05/24 08:29:12;;;;;;;2.75;1.25;;;15.70;77.20;;;;;;5116350;28;20026;-74
2021/05/24 08:31:40;;;;;;;1.88;0.73;;;15.90;79.10;;;;;;5116342;28;20028;-74
2021/05/24 08:34:06;;;;;;;3.30;0.90;;;16.30;80.00;;;;;;5116680;28;20119;-74
2021/05/24 08:36:32;;;;;;;0.63;0.60;;;16.30;79.30;;;;;;5116722;28;20084;-74
2021/05/24 08:38:58;;;;;;;1.13;1.00;;;16.60;82.40;;;;;;5116325;28;20031;-74
2021/05/24 08:41:24;;;;;;;2.58;1.65;;;16.70;79.30;;;;;;5116456;28;20027;-74
2021/05/24 08:43:50;;;;;;;3.42;0.90;;;16.90;77.10;;;;;;5116219;28;20031;-74
2021/05/24 08:46:16;;;;;;;0.80;0.77;;;17.00;78.90;;;;;;5116375;28;20020;-74
2021/05/24 08:48:43;;;;;;;1.98;1.02;;;17.10;77.40;;;;;;5116262;28;20031;-74
2021/05/24 08:51:09;;;;;;;2.10;1.27;;;17.50;73.30;;;;;;5116167;28;20011;-74
2021/05/24 08:53:39;;;;;;;2.15;0.75;;;17.80;73.10;;;;;;5116298;28;20551;-74
2021/05/24 08:56:08;;;;;;;2.78;0.88;;;17.60;70.40;;;;;;5116100;28;20542;-74
2021/05/24 08:58:34;;;;;;;1.25;0.57;;;18.20;72.70;;;;;;5116132;28;20035;-74
2021/05/24 09:01:00;;;;;;;2.33;1.00;;;18.40;71.80;;;;;;5116202;28;20054;-74
2021/05/24 09:03:30;;;;;;;2.05;1.15;;;18.10;72.00;;;;;;5116042;28;20102;-74
2021/05/24 09:05:59;;;;;;;3.38;1.20;;;17.90;72.40;;;;;;5116045;28;20031;-74
2021/05/24 09:08:39;;;;;;;1.58;0.95;;;18.10;72.00;;;;;;5116090;28;20092;-74
2021/05/24 09:11:23;;;;;;;1.48;1.35;;;18.40;72.60;;;;;;5115605;28;20467;-74
2021/05/24 09:13:49;;;;;;;3.30;1.13;;;18.40;73.40;;;;;;5115880;28;20027;-74
2021/05/24 09:16:32;;;;;;;3.47;1.35;;;18.10;71.70;;;;;;5115734;28;20096;-74
2021/05/24 09:19:20;;;;;;;2.65;1.15;;;18.10;72.20;;;;;;5115821;28;20368;-74
2021/05/24 09:21:52;;;;;;;2.17;1.15;;;18.30;72.10;;;;;;5115712;28;20088;-74
2021/05/24 09:24:33;;;;;;;2.42;0.88;;;17.90;75.10;;;;;;5115584;28;20365;-74
2021/05/24 09:27:04;;;;;;;1.27;1.17;;;18.00;75.00;;;;;;5115281;28;20036;-74
2021/05/24 09:29:47;;;;;;;4.63;1.20;;;18.00;77.50;;;;;;5115499;28;20066;-74
2021/05/24 09:32:18;;;;;;;1.65;0.90;;;18.20;75.20;;;;;;5113834;28;20055;-75
2021/05/24 09:34:45;;;;;;;2.33;0.80;;;18.20;75.80;;;;;;5115403;28;20072;-74
2021/05/24 09:37:12;;;;;;;2.38;1.13;;;17.80;72.90;;;;;;5115427;28;20035;-74
2021/05/24 09:39:38;;;;;;;4.38;1.00;;;17.80;74.20;;;;;;5114375;28;20027;-75
2021/05/24 09:42:12;;;;;;;2.78;1.02;;;18.10;77.00;;;;;;5115277;28;20023;-74
2021/05/24 09:45:14;;;;;;;9.10;2.28;;;18.50;77.50;;;;;;5115089;28;20027;-74
2021/05/24 09:47:40;;;;;;;2.90;1.05;;;19.00;72.60;;;;;;5105141;28;20450;-74
2021/05/24 09:50:17;;;;;;;9.60;5.93;;;18.90;73.50;;;;;;5113769;28;20098;-75
2021/05/24 09:52:44;;;;;;;4.78;1.17;;;19.90;73.70;;;;;;5114959;28;20479;-74
2021/05/24 09:55:23;;;;;;;2.33;1.35;;;20.60;70.30;;;;;;5114625;28;20034;-75
2021/05/24 09:57:59;;;;;;;6.72;1.25;;;20.10;70.40;;;;;;5115246;28;20032;-74
2021/05/24 10:00:30;;;;;;;1.70;1.00;;;19.40;72.30;;;;;;5114875;28;20529;-75
2021/05/24 10:02:59;;;;;;;3.60;1.20;;;18.80;71.90;;;;;;5114787;28;20507;-75
2021/05/24 10:05:43;;;;;;;3.03;1.30;;;18.40;72.80;;;;;;5114693;28;20027;-74
2021/05/24 10:08:09;;;;;;;1.92;1.02;;;18.80;73.70;;;;;;5114831;28;20031;-74
2021/05/24 10:10:36;;;;;;;2.05;1.27;;;19.70;70.40;;;;;;5114412;28;20386;-74
2021/05/24 10:13:02;;;;;;;0.95;0.70;;;22.00;68.20;;;;;;5114570;28;20027;-75
2021/05/24 10:15:28;;;;;;;3.20;1.15;;;23.90;63.40;;;;;;5114124;28;20031;-74
2021/05/24 10:18:01;;;;;;;2.38;0.95;;;23.60;64.80;;;;;;5114804;28;20107;-75
2021/05/24 10:20:27;;;;;;;4.45;0.85;;;21.60;66.00;;;;;;5114649;28;20028;-74
2021/05/24 10:22:53;;;;;;;1.58;0.60;;;19.80;72.50;;;;;;5114484;28;20469;-75
2021/05/24 10:25:20;;;;;;;0.73;0.70;;;18.60;75.50;;;;;;5113827;28;20023;-74
2021/05/24 10:27:46;;;;;;;1.40;0.73;;;18.20;77.70;;;;;;5114345;28;20055;-75
2021/05/24 10:30:13;;;;;;;1.13;0.50;;;18.10;78.10;;;;;;5114400;28;20023;-75
2021/05/24 10:32:56;;;;;;;1.05;0.73;;;18.10;78.30;;;;;;5114005;28;20051;-75
2021/05/24 10:35:30;;;;;;;1.00;0.65;;;17.90;77.20;;;;;;5114221;28;20031;-74
2021/05/24 10:37:56;;;;;;;1.48;0.73;;;17.90;77.70;;;;;;5113980;28;20479;-74
2021/05/24 10:40:22;;;;;;;2.50;0.90;;;17.80;78.10;;;;;;5114023;28;20038;-74
2021/05/24 10:42:48;;;;;;;2.53;0.73;;;17.90;77.80;;;;;;5114110;28;20039;-74
2021/05/24 10:45:17;;;;;;;4.05;0.65;;;18.00;77.60;;;;;;5114179;28;20023;-74
2021/05/24 10:47:58;;;;;;;0.57;0.57;;;17.40;79.10;;;;;;5114111;28;20032;-74
2021/05/24 10:50:25;;;;;;;2.35;0.70;;;16.70;80.60;;;;;;5113126;28;20031;-74
2021/05/24 10:52:55;;;;;;;2.08;0.60;;;16.20;82.50;;;;;;5113602;28;20034;-74
2021/05/24 10:55:44;;;;;;;3.45;0.80;;;15.80;84.50;;;;;;5113683;28;20050;-74
2021/05/24 10:58:09;;;;;;;1.95;0.90;;;15.50;85.00;;;;;;5114202;28;20046;-74
2021/05/24 11:00:53;;;;;;;2.65;1.02;;;15.50;86.70;;;;;;5113779;28;20102;-74
2021/05/24 11:03:20;;;;;;;0.75;0.70;;;15.40;86.60;;;;;;5113778;28;20023;-74
2021/05/24 11:05:48;;;;;;;1.33;0.80;;;15.30;87.60;;;;;;5113566;28;20020;-74
2021/05/24 11:08:25;;;;;;;2.08;1.20;;;15.20;87.70;;;;;;5113385;28;20080;-74
2021/05/24 11:10:53;;;;;;;3.00;1.20;;;15.10;87.90;;;;;;5113622;28;20080;-74
2021/05/24 11:13:19;;;;;;;1.50;0.95;;;14.90;89.30;;;;;;5113470;28;20072;-74
2021/05/24 11:15:46;;;;;;;0.80;0.80;;;14.80;89.60;;;;;;5113448;28;20023;-74
2021/05/24 11:18:20;;;;;;;2.85;1.13;;;14.70;89.70;;;;;;5113508;28;20050;-74
2021/05/24 11:21:01;;;;;;;2.28;1.23;;;14.50;89.80;;;;;;5113340;28;20037;-74
2021/05/24 11:26:26;;;;;;;4.07;1.38;;;14.50;90.60;;;;;;5113488;28;20028;-74
2021/05/24 11:29:14;;;;;;;4.05;1.65;;;14.40;89.90;;;;;;5105512;28;20540;-74
2021/05/24 11:31:40;;;;;;;3.05;1.10;;;14.20;91.00;;;;;;5113020;28;20398;-74
2021/05/24 11:34:07;;;;;;;1.50;1.38;;;14.20;91.20;;;;;;5113378;28;20399;-74
2021/05/24 11:36:33;;;;;;;2.55;1.63;;;14.00;92.20;;;;;;5112887;28;20102;-74
2021/05/24 11:39:21;;;;;;;3.25;1.50;;;13.90;92.90;;;;;;5113164;28;20431;-74
2021/05/24 11:41:59;;;;;;;4.97;1.30;;;13.70;94.60;;;;;;5113180;28;20163;-74
2021/05/24 11:44:29;;;;;;;4.28;1.60;;;13.70;94.00;;;;;;5113199;28;20031;-74
2021/05/24 11:46:57;;;;;;;3.20;1.50;;;13.70;94.60;;;;;;5112965;28;20020;-74
2021/05/24 11:49:36;;;;;;;3.53;1.80;;;13.50;94.90;;;;;;5113284;28;20425;-74
2021/05/24 11:52:04;;;;;;;2.75;1.50;;;13.40;97.00;;;;;;5112683;28;20027;-74
2021/05/24 11:54:30;;;;;;;2.97;2.03;;;13.40;96.80;;;;;;5113130;28;20032;-74
2021/05/24 11:57:01;;;;;;;6.55;1.50;;;13.40;97.30;;;;;;5112921;28;20380;-74
2021/05/24 11:59:28;;;;;;;7.93;2.47;;;13.50;96.70;;;;;;5112872;28;20030;-74
2021/05/24 12:01:56;;;;;;;4.93;2.35;;;13.40;97.10;;;;;;5114094;28;20028;-74
2021/05/24 12:04:27;;;;;;;4.50;2.55;;;13.30;97.30;;;;;;5117017;28;20062;-74
2021/05/24 12:07:03;;;;;;;6.80;2.92;;;12.80;99.90;;;;;;5116844;28;20060;-74
2021/05/24 12:09:34;;;;;;;4.18;2.90;;;12.70;99.90;;;;;;5117248;28;20026;-74
2021/05/24 12:12:03;;;;;;;4.28;2.55;;;12.80;99.90;;;;;;5117066;28;20020;-74
2021/05/24 12:14:30;;;;;;;6.25;1.80;;;12.70;99.90;;;;;;5117003;28;20039;-74
2021/05/24 12:16:56;;;;;;;4.28;2.63;;;12.60;99.90;;;;;;5115559;28;20491;-74
2021/05/24 12:19:26;;;;;;;3.50;1.60;;;12.60;99.90;;;;;;5116444;28;20060;-74
2021/05/24 12:21:53;;;;;;;;;;;12.60;99.90;;;;;;5117320;28;20487;-74
2021/05/24 12:24:19;;;;;;;1.27;1.15;;;12.50;99.90;;;;;;5116875;28;20275;-74
2021/05/24 12:26:53;;;;;;;2.42;1.45;;;12.40;99.90;;;;;;5116716;28;20027;-74
2021/05/24 12:29:28;;;;;;;2.13;1.70;;;12.20;99.90;;;;;;5116693;28;20020;-74
2021/05/24 12:31:56;;;;;;;5.47;4.30;;;12.30;99.90;;;;;;5116388;28;20040;-74
2021/05/24 12:34:38;;;;;;;1.70;1.08;;;12.20;99.90;;;;;;5116388;28;20028;-74
2021/05/24 12:37:06;;;;;;;1.25;0.68;;;12.20;99.90;;;;;;5116999;28;20437;-74
2021/05/24 12:39:34;;;;;;;1.00;0.90;;;12.10;99.90;;;;;;5116568;28;20506;-74
2021/05/24 12:42:01;;;;;;;0.63;0.63;;;11.90;99.90;;;;;;5116431;28;20459;-74
2021/05/24 12:44:29;;;;;;;3.17;0.80;;;11.90;99.90;;;;;;5116442;28;20032;-74
2021/05/24 12:46:57;;;;;;;1.40;0.70;;;11.80;99.90;;;;;;5116260;28;20106;-74
2021/05/24 12:49:37;;;;;;;1.70;0.70;;;11.60;99.90;;;;;;5116082;28;20016;-74
2021/05/24 12:52:05;;;;;;;0.57;0.57;;;11.60;99.90;;;;;;5116146;28;20023;-74
2021/05/24 12:54:48;;;;;;;1.42;0.70;;;11.70;99.90;;;;;;5116243;28;20032;-74
2021/05/24 12:57:17;;;;;;;0.80;0.57;;;11.60;99.90;;;;;;5116283;28;20032;-74
2021/05/24 12:59:53;;;;;;;0.68;0.50;;;11.40;99.90;;;;;;5116076;28;20020;-73